ilmateenistus.ee keskkonnaagentuur.ee
EETN Tallinn
FTEO31 EETN 042300
TAF EETN 042330Z 0500/0524 VRB02KT CAVOK PROB40 TEMPO 0500/0505 3000
    BR SCT003 BECMG 0506/0508 22012KT PROB40 TEMPO 0511/0517 25018G30KT
    TEMPO 0512/0515 BKN014 TEMPO 0515/0520 2000 SHSN BKN010 SCT015CB
    BECMG 0517/0519 28015KT=

METAR EETN 050350Z 22002KT CAVOK M11/M12 Q1033 NOSIG=
Tallinn
EEKA Kärdla
METAR EEKA 050350Z NIL=
Kärdla
EEKE Kuressaare
METAR EEKE 050350Z AUTO 28002KT 9999NDV NCD M11/M12 Q1035=
Kuressaare
EEPU Pärnu
METAR EEPU 050350Z AUTO 23002KT 9999 NCD M10/M11 Q1034=
Pärnu
EETU Tartu
METAR EETU 050350Z AUTO 34004KT 300V010 9999 OVC006/// M07/M08 Q1033=
Tartu
EEEI Ämari
METAR EEEI 050350Z AUTO 21003KT CAVOK M13/M14 Q1034=
Ämari
Kihnu
Ruhnu
Ridali
Viljandi